Time;durP1;ratioP1;P1;durP2;ratioP2;P2;SDS_P1;SDS_P2;PMS_P1;PMS_P2;Temp;Humidity;BMP_temperature;BMP_pressure;BME280_temperature;BME280_humidity;BME280_pressure;Samples;Min_cycle;Max_cycle;Signal;HPM_P1;HPM_P2
2023/09/22 00:00:18;;;;;;;3.65;2.40;;;;;;;12.18;62.23;99709.91;5024553;28;20040;-70
2023/09/22 00:02:44;;;;;;;2.70;1.83;;;;;;;12.19;61.88;99708.94;5019870;28;20067;-71
2023/09/22 00:05:13;;;;;;;3.65;1.85;;;;;;;12.29;61.59;99699.53;5022856;28;20904;-70
2023/09/22 00:07:42;;;;;;;3.10;2.13;;;;;;;12.34;61.18;99699.25;5020217;28;20041;-69
2023/09/22 00:10:09;;;;;;;2.50;1.50;;;;;;;12.18;61.28;99707.28;5022029;28;20036;-73
2023/09/22 00:12:34;;;;;;;4.00;2.10;;;;;;;12.19;61.33;99706.31;5025986;28;20454;-72
2023/09/22 00:15:01;;;;;;;2.28;1.50;;;;;;;12.19;61.18;99706.31;5021949;28;20037;-73
2023/09/22 00:17:27;;;;;;;5.93;1.55;;;;;;;12.18;61.02;99703.78;5024110;28;20576;-73
2023/09/22 00:19:53;;;;;;;2.17;1.35;;;;;;;12.02;61.19;99702.19;5019277;28;20095;-71
2023/09/22 00:22:19;;;;;;;3.65;1.52;;;;;;;12.01;61.09;99697.03;5021173;28;20049;-71
2023/09/22 00:24:45;;;;;;;4.07;1.60;;;;;;;11.99;60.93;99702.38;5019946;28;20156;-71
2023/09/22 00:27:10;;;;;;;1.60;1.15;;;;;;;11.97;60.89;99706.03;5041879;28;20108;-71
2023/09/22 00:29:36;;;;;;;1.92;0.88;;;;;;;11.99;60.69;99704.16;5018255;28;20037;-71
2023/09/22 00:32:03;;;;;;;3.20;1.33;;;;;;;11.98;60.74;99707.72;5026031;28;20496;-71
2023/09/22 00:34:31;;;;;;;3.60;1.65;;;;;;;11.85;60.54;99698.03;5022360;28;20634;-69
2023/09/22 00:36:57;;;;;;;2.20;1.70;;;;;;;11.75;60.89;99693.44;5002975;28;20039;-70
2023/09/22 00:39:23;;;;;;;3.78;1.98;;;;;;;11.62;60.81;99701.22;5022796;28;20102;-72
2023/09/22 00:41:54;;;;;;;2.72;1.40;;;;;;;11.55;61.43;99710.41;5018235;28;20120;-71
2023/09/22 00:44:19;;;;;;;2.63;1.77;;;;;;;11.57;61.13;99700.69;5022464;28;20084;-72
2023/09/22 00:46:45;;;;;;;2.97;1.75;;;;;;;11.57;61.34;99703.28;5020315;28;20083;-71
2023/09/22 00:49:12;;;;;;;3.45;1.80;;;;;;;11.60;61.38;99705.75;5023456;28;20041;-72
2023/09/22 00:51:39;;;;;;;3.40;2.10;;;;;;;11.66;61.41;99710.56;5020361;28;20029;-71
2023/09/22 00:54:04;;;;;;;1.98;1.38;;;;;;;11.69;61.18;99707.78;5026955;28;20033;-70
2023/09/22 00:56:30;;;;;;;2.33;1.70;;;;;;;11.63;60.95;99708.16;5019172;28;20044;-71
2023/09/22 00:58:56;;;;;;;5.63;1.50;;;;;;;11.64;61.04;99721.16;5034886;28;20037;-71
2023/09/22 01:01:23;;;;;;;4.10;1.98;;;;;;;11.54;61.47;99712.19;5027398;28;20483;-71
2023/09/22 01:03:51;;;;;;;2.78;1.90;;;;;;;11.62;61.45;99711.69;5021751;28;20037;-71
2023/09/22 01:06:18;;;;;;;3.55;1.77;;;;;;;11.62;61.17;99702.09;5037369;28;20580;-71
2023/09/22 01:08:43;;;;;;;1.85;1.13;;;;;;;11.64;61.23;99704.59;5032884;28;20045;-72
2023/09/22 01:11:09;;;;;;;4.40;2.25;;;;;;;11.59;60.96;99717.13;5018963;28;20040;-71
2023/09/22 01:13:36;;;;;;;3.00;1.58;;;;;;;11.52;60.90;99721.91;5018802;28;20053;-72
2023/09/22 01:16:02;;;;;;;2.40;1.80;;;;;;;11.42;60.87;99711.19;5009993;28;20033;-70
2023/09/22 01:18:29;;;;;;;2.42;1.30;;;;;;;11.38;60.77;99709.69;5019728;28;20525;-72
2023/09/22 01:20:57;;;;;;;3.40;1.83;;;;;;;11.35;61.31;99709.03;5002038;28;20021;-76
2023/09/22 01:23:23;;;;;;;2.65;1.88;;;;;;;11.32;60.74;99714.47;5013019;28;20064;-76
2023/09/22 01:25:51;;;;;;;2.05;1.35;;;;;;;11.30;60.71;99719.78;5003835;28;20063;-75
2023/09/22 01:28:17;;;;;;;2.40;1.17;;;;;;;11.27;60.95;99727.00;5019562;28;20064;-76
2023/09/22 01:30:43;;;;;;;3.17;1.83;;;;;;;11.28;61.19;99731.28;5021908;28;20041;-75
2023/09/22 01:33:09;;;;;;;3.72;2.15;;;;;;;11.26;61.32;99736.59;5036526;28;20504;-75
2023/09/22 01:35:36;;;;;;;2.90;1.35;;;;;;;11.27;61.68;99737.44;5006886;28;20111;-74
2023/09/22 01:38:10;;;;;;;3.63;2.30;;;;;;;11.28;61.73;99733.88;5020468;28;20075;-71
2023/09/22 01:40:36;;;;;;;3.13;2.15;;;;;;;11.27;61.81;99732.22;5019678;28;20106;-67
2023/09/22 01:43:02;;;;;;;2.78;1.73;;;;;;;11.27;61.76;99727.81;5021665;28;20053;-72
2023/09/22 01:45:28;;;;;;;3.15;1.80;;;;;;;11.30;61.83;99717.16;5028009;28;20033;-71
2023/09/22 01:47:54;;;;;;;4.32;2.45;;;;;;;11.35;61.54;99722.09;5028507;28;22264;-71
2023/09/22 01:50:19;;;;;;;4.55;2.30;;;;;;;11.23;61.73;99716.69;5024872;28;20032;-71
2023/09/22 01:52:45;;;;;;;3.53;1.98;;;;;;;11.27;61.81;99719.97;5023059;28;20049;-69
2023/09/22 01:55:11;;;;;;;4.63;2.95;;;;;;;11.28;61.79;99723.41;5023291;28;20117;-71
2023/09/22 01:57:37;;;;;;;4.18;2.80;;;;;;;11.30;61.88;99721.56;4997984;28;20053;-70
2023/09/22 02:00:05;;;;;;;4.65;3.03;;;;;;;11.31;61.93;99724.09;5016478;28;20035;-70
2023/09/22 02:02:42;;;;;;;5.18;3.30;;;;;;;11.28;62.02;99715.56;5002379;28;20522;-68
2023/09/22 02:05:09;;;;;;;4.45;3.35;;;;;;;11.28;61.74;99716.41;5022780;28;20029;-68
2023/09/22 02:07:34;;;;;;;3.95;2.60;;;;;;;11.31;61.64;99716.25;5024533;28;20038;-69
2023/09/22 02:10:00;;;;;;;6.10;3.35;;;;;;;11.30;61.73;99717.16;5020558;28;20039;-68
2023/09/22 02:12:26;;;;;;;5.45;3.38;;;;;;;11.35;61.74;99720.34;5027581;28;20045;-70
2023/09/22 02:14:51;;;;;;;4.93;2.83;;;;;;;11.32;61.70;99725.75;5021933;28;20053;-68
2023/09/22 02:17:17;;;;;;;5.97;3.75;;;;;;;11.31;61.88;99728.44;5012677;28;20045;-66
2023/09/22 02:19:43;;;;;;;5.32;3.03;;;;;;;11.44;61.97;99730.25;5023234;28;20025;-65
2023/09/22 02:22:08;;;;;;;5.60;3.58;;;;;;;11.48;61.71;99735.28;5027194;28;20036;-65
2023/09/22 02:24:34;;;;;;;7.68;3.47;;;;;;;11.44;61.59;99740.72;5025389;28;20052;-64
2023/09/22 02:26:59;;;;;;;8.77;4.10;;;;;;;11.44;61.80;99734.63;5022321;28;20094;-67
2023/09/22 02:29:25;;;;;;;5.45;3.10;;;;;;;11.52;61.60;99731.53;5030395;28;20475;-65
2023/09/22 02:31:50;;;;;;;4.90;3.28;;;;;;;11.54;61.59;99722.66;5024588;28;20563;-65
2023/09/22 02:34:20;;;;;;;6.82;3.55;;;;;;;11.54;61.55;99724.44;5022952;28;20124;-65
2023/09/22 02:36:47;;;;;;;5.72;3.42;;;;;;;11.51;61.41;99722.00;5036896;28;20033;-65
2023/09/22 02:39:12;;;;;;;5.40;2.97;;;;;;;11.51;61.76;99719.38;5024553;28;20139;-64
2023/09/22 02:41:38;;;;;;;7.05;3.72;;;;;;;11.62;61.72;99723.03;5022013;28;20168;-64
2023/09/22 02:44:06;;;;;;;5.55;3.58;;;;;;;11.58;61.36;99715.47;5024498;28;20032;-65
2023/09/22 02:46:32;;;;;;;6.60;3.58;;;;;;;11.59;61.41;99720.59;5023921;28;20064;-65
2023/09/22 02:48:57;;;;;;;5.38;3.35;;;;;;;11.68;61.63;99716.53;5043482;28;20125;-64
2023/09/22 02:51:23;;;;;;;6.20;3.70;;;;;;;11.76;61.76;99719.53;5028436;28;20043;-67
2023/09/22 02:53:50;;;;;;;5.32;3.88;;;;;;;11.81;61.58;99729.75;5020337;28;20144;-65
2023/09/22 02:56:16;;;;;;;7.18;3.67;;;;;;;11.85;61.37;99729.44;5025169;28;20029;-66
2023/09/22 02:58:45;;;;;;;7.93;4.40;;;;;;;11.80;61.35;99731.53;5002747;28;20049;-67
2023/09/22 03:01:11;;;;;;;5.60;3.40;;;;;;;11.81;61.18;99733.19;5042741;28;20396;-66
2023/09/22 03:03:42;;;;;;;6.65;3.55;;;;;;;11.75;61.46;99740.56;5008304;28;20068;-66
2023/09/22 03:06:07;;;;;;;6.32;4.00;;;;;;;11.78;61.38;99749.09;5024979;28;20156;-70
2023/09/22 03:08:33;;;;;;;6.40;4.00;;;;;;;11.68;61.41;99743.56;5025267;28;20065;-70
2023/09/22 03:10:59;;;;;;;5.60;3.47;;;;;;;11.74;61.57;99741.50;5023159;28;20395;-70
2023/09/22 03:13:24;;;;;;;8.80;4.10;;;;;;;11.62;62.08;99745.72;5022566;28;20041;-70
2023/09/22 03:15:50;;;;;;;6.72;3.80;;;;;;;11.68;61.55;99745.34;5018600;28;20061;-69
2023/09/22 03:18:15;;;;;;;6.57;3.85;;;;;;;11.80;61.45;99747.22;5004992;28;20041;-69
2023/09/22 03:20:41;;;;;;;5.57;3.88;;;;;;;11.87;61.60;99751.13;5041565;28;20032;-70
2023/09/22 03:23:06;;;;;;;6.78;3.72;;;;;;;11.64;62.17;99746.47;5036785;28;20430;-71
2023/09/22 03:25:32;;;;;;;6.47;3.88;;;;;;;11.91;61.77;99748.31;5010799;28;20072;-71
2023/09/22 03:27:58;;;;;;;6.20;3.50;;;;;;;11.94;61.75;99753.38;5026564;28;20877;-71
2023/09/22 03:30:24;;;;;;;5.78;3.63;;;;;;;11.99;61.79;99751.28;5025452;28;20033;-72
2023/09/22 03:32:50;;;;;;;5.38;3.58;;;;;;;11.98;61.99;99745.22;5036545;28;20053;-71
2023/09/22 03:35:16;;;;;;;5.10;3.72;;;;;;;12.00;61.47;99747.72;5024398;28;20069;-72
2023/09/22 03:37:42;;;;;;;7.40;4.47;;;;;;;12.03;61.65;99748.38;5023554;28;20053;-71
2023/09/22 03:40:13;;;;;;;6.68;4.38;;;;;;;11.88;61.71;99747.56;5025947;28;20079;-72
2023/09/22 03:42:40;;;;;;;8.00;3.70;;;;;;;12.00;61.62;99753.81;5026417;28;20037;-71
2023/09/22 03:45:07;;;;;;;7.28;4.85;;;;;;;11.97;61.52;99745.31;5021099;28;20031;-71
2023/09/22 03:47:32;;;;;;;6.88;4.70;;;;;;;11.94;61.62;99742.91;5027832;28;20064;-72
2023/09/22 03:49:58;;;;;;;6.40;4.63;;;;;;;12.00;61.70;99737.25;5003695;28;20063;-71
2023/09/22 03:52:24;;;;;;;7.28;4.80;;;;;;;12.01;61.41;99738.94;5042108;28;20616;-71
2023/09/22 03:54:50;;;;;;;8.82;4.72;;;;;;;11.91;61.38;99730.84;5021466;28;20029;-71
2023/09/22 03:57:18;;;;;;;8.35;5.28;;;;;;;11.93;61.90;99726.31;5038556;28;20040;-71
2023/09/22 03:59:44;;;;;;;10.90;5.63;;;;;;;11.92;62.07;99726.44;5019317;28;20033;-71
2023/09/22 04:02:10;;;;;;;11.68;6.15;;;;;;;11.98;61.89;99728.69;5024765;28;20028;-71
2023/09/22 04:04:35;;;;;;;7.05;5.55;;;;;;;12.02;61.46;99722.28;5022762;28;20076;-71
2023/09/22 04:07:01;;;;;;;9.02;5.22;;;;;;;12.04;61.75;99723.03;5026852;28;20966;-70
2023/09/22 04:09:28;;;;;;;9.73;5.28;;;;;;;12.08;61.49;99717.50;5005588;28;20047;-72
2023/09/22 04:11:53;;;;;;;6.78;4.53;;;;;;;12.17;61.38;99723.91;5023692;28;20039;-71
2023/09/22 04:14:20;;;;;;;9.88;6.05;;;;;;;12.18;61.17;99720.38;5022265;28;20032;-72
2023/09/22 04:16:46;;;;;;;7.28;5.32;;;;;;;12.12;61.57;99726.00;5002575;28;20037;-72
2023/09/22 04:19:11;;;;;;;9.85;6.22;;;;;;;12.20;61.03;99728.97;5036466;28;20041;-71
2023/09/22 04:21:42;;;;;;;12.63;6.85;;;;;;;12.14;61.01;99729.34;5043210;28;20428;-73
2023/09/22 04:24:09;;;;;;;14.20;6.80;;;;;;;12.21;61.31;99735.03;5019982;28;20401;-73
2023/09/22 04:26:42;;;;;;;12.52;7.30;;;;;;;12.21;61.03;99729.81;5023506;28;20072;-72
2023/09/22 04:29:11;;;;;;;9.80;6.82;;;;;;;12.18;61.29;99732.59;5034292;28;20270;-67
2023/09/22 04:31:37;;;;;;;11.77;7.22;;;;;;;12.02;61.54;99730.13;5022745;28;20055;-68
2023/09/22 04:34:03;;;;;;;12.63;8.30;;;;;;;11.88;62.29;99734.47;5018998;28;20428;-69
2023/09/22 04:36:30;;;;;;;11.45;7.28;;;;;;;12.11;61.43;99732.19;5022650;28;20043;-70
2023/09/22 04:38:56;;;;;;;10.13;6.88;;;;;;;12.21;61.46;99730.63;5018981;28;20112;-69
2023/09/22 04:41:21;;;;;;;13.70;7.28;;;;;;;12.16;61.38;99731.88;5018696;28;20041;-72
2023/09/22 04:43:47;;;;;;;14.40;7.15;;;;;;;12.21;61.29;99730.63;5002063;28;20514;-71
2023/09/22 04:46:15;;;;;;;11.52;7.63;;;;;;;12.33;61.14;99730.78;5025422;28;20033;-70
2023/09/22 04:48:41;;;;;;;13.43;7.53;;;;;;;12.18;61.75;99725.59;5025223;28;20029;-71
2023/09/22 04:51:06;;;;;;;13.50;8.57;;;;;;;12.21;61.45;99733.25;5020858;28;20608;-70
2023/09/22 04:53:33;;;;;;;12.50;7.85;;;;;;;12.16;61.72;99727.47;5020992;28;20039;-67
2023/09/22 04:56:03;;;;;;;14.68;8.98;;;;;;;12.21;61.71;99733.25;5019588;28;20148;-67
2023/09/22 04:58:30;;;;;;;11.60;7.38;;;;;;;12.26;61.56;99739.03;5021380;28;20033;-67
2023/09/22 05:00:58;;;;;;;14.50;9.20;;;;;;;12.28;61.40;99745.00;5016013;28;20103;-69
2023/09/22 05:03:26;;;;;;;15.25;8.63;;;;;;;12.28;61.25;99739.78;5024545;28;20064;-68
2023/09/22 05:05:53;;;;;;;13.50;8.43;;;;;;;12.35;60.93;99749.84;5020297;28;20033;-70
2023/09/22 05:08:19;;;;;;;15.45;8.35;;;;;;;12.28;60.89;99745.00;5018039;28;20095;-68
2023/09/22 05:10:48;;;;;;;12.00;7.15;;;;;;;12.23;61.41;99754.13;5025188;28;20041;-68
2023/09/22 05:13:17;;;;;;;15.77;9.23;;;;;;;12.30;61.32;99755.41;5039466;28;20052;-69
2023/09/22 05:15:43;;;;;;;10.82;7.53;;;;;;;12.29;61.44;99757.19;5041139;28;20059;-68
2023/09/22 05:18:14;;;;;;;18.13;9.23;;;;;;;12.29;61.32;99758.97;5018964;28;20123;-70
2023/09/22 05:20:40;;;;;;;15.60;9.20;;;;;;;12.04;61.81;99757.94;5041977;28;20579;-69
2023/09/22 05:23:08;;;;;;;16.48;10.00;;;;;;;12.12;61.82;99767.06;5033083;28;20526;-68
2023/09/22 05:25:43;;;;;;;15.57;9.68;;;;;;;12.24;61.55;99776.75;5022411;28;20065;-68
2023/09/22 05:28:10;;;;;;;21.60;10.32;;;;;;;12.24;61.51;99777.56;5023089;28;20037;-68
2023/09/22 05:30:40;;;;;;;15.50;9.68;;;;;;;12.28;61.56;99791.34;5022174;28;20041;-70
2023/09/22 05:33:07;;;;;;;15.27;9.68;;;;;;;12.14;61.58;99794.00;5021392;28;20033;-68
2023/09/22 05:35:35;;;;;;;14.93;9.65;;;;;;;12.14;61.60;99800.09;5022594;28;20116;-68
2023/09/22 05:38:02;;;;;;;20.05;9.63;;;;;;;12.17;61.79;99802.50;5017419;28;20397;-68
2023/09/22 05:40:28;;;;;;;14.40;8.77;;;;;;;11.98;61.89;99804.63;5021722;28;20541;-67
2023/09/22 05:42:53;;;;;;;17.23;10.70;;;;;;;12.03;61.74;99799.94;5019093;28;20041;-70
2023/09/22 05:45:19;;;;;;;19.10;10.25;;;;;;;11.70;62.95;99808.06;5025035;28;20029;-70
2023/09/22 05:47:45;;;;;;;18.08;10.07;;;;;;;11.22;63.50;99803.94;5018190;28;20041;-70
2023/09/22 05:50:13;;;;;;;21.80;10.35;;;;;;;11.52;63.28;99810.03;5022412;28;20132;-73
2023/09/22 05:52:39;;;;;;;17.00;10.20;;;;;;;11.58;62.94;99801.81;5020176;28;20055;-70
2023/09/22 05:55:06;;;;;;;17.15;10.65;;;;;;;11.87;62.04;99807.91;5035619;28;20035;-70
2023/09/22 05:57:34;;;;;;;17.00;9.55;;;;;;;11.98;61.40;99822.94;5023821;28;20099;-73
2023/09/22 06:00:00;;;;;;;12.38;8.55;;;;;;;11.55;62.54;99825.53;5018872;28;20617;-67
2023/09/22 06:02:25;;;;;;;14.73;10.00;;;;;;;11.76;61.87;99824.25;5019378;28;20033;-67
2023/09/22 06:04:55;;;;;;;12.82;8.00;;;;;;;11.96;61.27;99824.81;5018822;28;20396;-71
2023/09/22 06:07:21;;;;;;;16.20;8.88;;;;;;;11.64;61.92;99825.84;5008756;28;20269;-71
2023/09/22 06:09:47;;;;;;;14.43;8.20;;;;;;;11.61;62.15;99825.19;5017058;28;20036;-70
2023/09/22 06:12:13;;;;;;;16.30;8.98;;;;;;;11.60;61.80;99839.22;5018664;28;20045;-70
2023/09/22 06:14:39;;;;;;;14.25;9.05;;;;;;;11.94;61.37;99845.03;5020708;28;20041;-71
2023/09/22 06:17:04;;;;;;;15.63;8.40;;;;;;;11.36;61.89;99850.22;5018959;28;20037;-69
2023/09/22 06:19:30;;;;;;;16.48;8.25;;;;;;;11.84;61.12;99852.59;5020969;28;20091;-71
2023/09/22 06:21:59;;;;;;;19.27;8.50;;;;;;;12.41;60.44;99839.38;5019434;28;20640;-69
2023/09/22 06:24:25;;;;;;;15.50;8.55;;;;;;;11.93;59.78;99831.06;5021170;28;20067;-69
2023/09/22 06:26:52;;;;;;;15.85;8.43;;;;;;;12.57;58.90;99822.69;5023712;28;20105;-68
2023/09/22 06:29:18;;;;;;;11.70;6.97;;;;;;;13.68;56.50;99818.75;5023393;28;20402;-71
2023/09/22 06:31:43;;;;;;;12.27;8.18;;;;;;;14.25;52.95;99823.44;5040594;28;20040;-70
2023/09/22 06:34:09;;;;;;;13.23;8.48;;;;;;;14.55;53.42;99830.09;5009577;28;20514;-70
2023/09/22 06:36:37;;;;;;;12.68;8.43;;;;;;;14.28;53.93;99833.75;5026514;28;20042;-69
2023/09/22 06:39:07;;;;;;;13.60;8.38;;;;;;;14.66;52.94;99840.66;5021506;28;20037;-70
2023/09/22 06:41:35;;;;;;;9.85;6.82;;;;;;;16.38;49.16;99840.59;5011002;28;20033;-70
2023/09/22 06:44:02;;;;;;;12.98;7.72;;;;;;;16.13;47.88;99847.03;5022321;28;20033;-70
2023/09/22 06:46:28;;;;;;;15.27;8.95;;;;;;;14.40;52.15;99850.41;5024645;28;20052;-70
2023/09/22 06:48:55;;;;;;;13.77;8.38;;;;;;;14.09;53.28;99865.75;5008036;28;20033;-70
2023/09/22 06:51:21;;;;;;;14.35;6.45;;;;;;;13.52;54.62;99876.72;5043911;28;20045;-70
2023/09/22 06:53:47;;;;;;;13.23;7.97;;;;;;;13.24;55.81;99880.34;5024904;28;20114;-70
2023/09/22 06:56:18;;;;;;;10.20;7.07;;;;;;;12.34;58.27;99889.69;5022834;28;20024;-70
2023/09/22 06:58:47;;;;;;;15.85;7.60;;;;;;;12.38;57.99;99886.75;5023897;28;20683;-70
2023/09/22 07:01:14;;;;;;;12.15;7.50;;;;;;;12.46;57.46;99889.72;5025899;28;20031;-70
2023/09/22 07:03:41;;;;;;;14.18;8.15;;;;;;;11.76;59.38;99889.69;5022741;28;20747;-73
2023/09/22 07:06:14;;;;;;;16.15;8.45;;;;;;;11.92;59.55;99891.41;5022063;28;20056;-71
2023/09/22 07:08:40;;;;;;;;;;;;;;;12.23;58.53;99890.34;5024811;28;20125;-70
2023/09/22 07:11:09;;;;;;;13.82;8.60;;;;;;;12.44;58.29;99904.69;5019210;28;20015;-70
2023/09/22 07:13:35;;;;;;;13.43;7.65;;;;;;;12.47;58.04;99901.06;5021889;28;20056;-72
2023/09/22 07:16:01;;;;;;;13.73;8.18;;;;;;;12.17;58.49;99906.44;5023473;28;20120;-72
2023/09/22 07:18:32;;;;;;;14.85;8.82;;;;;;;12.31;58.26;99913.44;5039136;28;20037;-70
2023/09/22 07:21:00;;;;;;;13.32;8.50;;;;;;;12.25;58.22;99918.13;5021837;28;20060;-68
2023/09/22 07:23:32;;;;;;;16.63;9.20;;;;;;;13.06;57.50;99919.97;5021698;28;20037;-70
2023/09/22 07:26:02;;;;;;;;;;;;;;;13.75;55.15;99935.56;5022410;28;20039;-68
2023/09/22 07:28:28;;;;;;;16.17;8.25;;;;;;;13.92;53.76;99935.25;5024943;28;19916;-68
2023/09/22 07:30:53;;;;;;;14.15;9.20;;;;;;;14.20;52.50;99946.44;5024816;28;20526;-68
2023/09/22 07:33:23;;;;;;;14.40;9.52;;;;;;;14.89;52.37;99943.34;5022410;28;20040;-67
2023/09/22 07:35:51;;;;;;;15.73;8.55;;;;;;;15.68;48.59;99931.28;5016713;28;20155;-69
2023/09/22 07:38:18;;;;;;;13.02;7.75;;;;;;;16.62;47.16;99932.75;5021956;28;20925;-69
2023/09/22 07:40:44;;;;;;;13.40;7.40;;;;;;;17.09;45.64;99924.59;5020054;28;20853;-69
2023/09/22 07:43:10;;;;;;;12.02;7.43;;;;;;;17.68;44.90;99927.66;5017625;28;20036;-67
2023/09/22 07:45:36;;;;;;;11.20;7.32;;;;;;;18.02;43.78;99923.75;5026798;28;20025;-68
2023/09/22 07:48:02;;;;;;;12.02;8.68;;;;;;;17.05;45.56;99928.44;5019052;28;20076;-67
2023/09/22 07:50:29;;;;;;;15.38;8.85;;;;;;;16.06;46.33;99929.31;5021739;28;20037;-67
2023/09/22 07:52:56;;;;;;;11.65;7.65;;;;;;;15.77;47.69;99935.88;5018156;28;20661;-67
2023/09/22 07:55:22;;;;;;;12.85;9.35;;;;;;;14.86;50.35;99933.88;5025471;28;20053;-69
2023/09/22 07:57:49;;;;;;;13.07;9.05;;;;;;;15.32;50.70;99941.03;5013593;28;20603;-69
2023/09/22 08:00:18;;;;;;;12.77;8.30;;;;;;;16.86;47.39;99944.09;5024002;28;20487;-68
2023/09/22 08:02:49;;;;;;;13.23;8.23;;;;;;;15.94;47.15;99958.28;5014759;28;20041;-67
2023/09/22 08:05:17;;;;;;;12.90;8.52;;;;;;;15.40;48.69;99952.81;5035816;28;20056;-69
2023/09/22 08:07:43;;;;;;;15.75;9.13;;;;;;;15.03;48.16;99956.31;5021367;28;20045;-69
2023/09/22 08:10:10;;;;;;;15.15;8.13;;;;;;;17.24;46.07;99959.44;5018664;28;20105;-70
2023/09/22 08:12:38;;;;;;;15.27;7.68;;;;;;;18.32;42.46;99943.28;5020148;28;20060;-69
2023/09/22 08:15:07;;;;;;;11.25;6.97;;;;;;;19.41;40.95;99956.50;5018703;28;20040;-69
2023/09/22 08:17:36;;;;;;;11.73;8.45;;;;;;;19.89;38.71;99951.13;5020422;28;20152;-67
2023/09/22 08:20:07;;;;;;;9.63;7.35;;;;;;;20.65;37.61;99947.44;5017295;28;20033;-67
2023/09/22 08:22:32;;;;;;;10.43;7.28;;;;;;;21.80;36.81;99942.28;5018723;28;20095;-69
2023/09/22 08:24:58;;;;;;;14.30;7.68;;;;;;;20.93;36.18;99944.72;5016208;28;21282;-67
2023/09/22 08:27:29;;;;;;;9.18;6.75;;;;;;;18.23;41.76;99957.31;5019757;28;20042;-67
2023/09/22 08:29:55;;;;;;;11.13;6.40;;;;;;;16.87;43.79;99961.59;5018082;28;20055;-69
2023/09/22 08:32:23;;;;;;;12.90;6.28;;;;;;;15.95;46.23;99962.59;5031238;28;20048;-67
2023/09/22 08:34:48;;;;;;;8.90;6.18;;;;;;;15.58;47.52;99968.03;5021064;28;20071;-68
2023/09/22 08:37:14;;;;;;;11.27;6.85;;;;;;;14.40;50.59;99962.63;5036601;28;20041;-67
2023/09/22 08:39:40;;;;;;;10.18;6.45;;;;;;;15.52;48.75;99965.03;5020243;28;20044;-69
2023/09/22 08:42:06;;;;;;;11.70;6.78;;;;;;;16.26;48.12;99972.59;5020535;28;20115;-68
2023/09/22 08:44:32;;;;;;;8.40;4.82;;;;;;;16.52;44.74;99974.00;5018929;28;20455;-67
2023/09/22 08:47:01;;;;;;;8.88;5.15;;;;;;;15.65;46.46;99984.22;5018307;28;20475;-68
2023/09/22 08:49:26;;;;;;;9.95;5.00;;;;;;;15.11;47.83;100003.97;5005595;28;20029;-68
2023/09/22 08:51:52;;;;;;;9.82;5.40;;;;;;;14.96;48.49;100000.66;5020406;28;20041;-69
2023/09/22 08:54:18;;;;;;;6.35;4.93;;;;;;;13.96;50.60;99998.91;5019524;28;20044;-68
2023/09/22 08:56:44;;;;;;;11.70;5.40;;;;;;;14.32;51.25;100000.81;5020110;28;20760;-68
2023/09/22 08:59:12;;;;;;;9.82;6.05;;;;;;;15.07;49.90;99999.03;5016372;28;20045;-68
2023/09/22 09:01:37;;;;;;;7.22;5.10;;;;;;;14.87;48.46;99995.22;5033678;28;20865;-68
2023/09/22 09:04:48;;;;;;;11.07;4.45;;;;;;;15.89;48.05;99999.97;5014232;28;20041;-68
2023/09/22 09:07:16;;;;;;;10.45;4.70;;;;;;;16.37;45.65;100007.69;5004283;28;21267;-68
2023/09/22 09:09:47;;;;;;;10.27;4.47;;;;;;;16.12;45.89;100014.03;5019421;28;20426;-67
2023/09/22 09:12:13;;;;;;;7.87;3.80;;;;;;;16.25;46.17;100024.47;5005389;28;21328;-68
2023/09/22 09:14:46;;;;;;;7.22;4.20;;;;;;;16.06;45.76;100034.75;5019194;28;20530;-67
2023/09/22 09:17:22;;;;;;;6.47;4.25;;;;;;;15.90;47.07;100033.25;5010248;28;20033;-68
2023/09/22 09:20:01;;;;;;;5.63;4.15;;;;;;;15.29;47.54;100025.50;5022774;28;20068;-68
2023/09/22 09:22:37;;;;;;;7.65;4.00;;;;;;;15.43;49.23;100036.81;5015011;28;20135;-67
2023/09/22 09:25:08;;;;;;;6.25;3.85;;;;;;;15.39;47.41;100025.66;5018162;28;20072;-68
2023/09/22 09:27:34;;;;;;;7.63;5.38;;;;;;;15.65;46.85;100039.53;5020368;28;20037;-65
2023/09/22 09:30:11;;;;;;;5.82;4.22;;;;;;;14.89;47.77;100044.16;5015561;28;20044;-65
2023/09/22 09:32:40;;;;;;;6.55;3.40;;;;;;;14.89;48.95;100045.94;5039600;28;20044;-65
2023/09/22 09:35:06;;;;;;;6.85;3.58;;;;;;;13.90;50.59;100039.56;5012367;28;20102;-65
2023/09/22 09:37:32;;;;;;;4.35;3.15;;;;;;;13.52;51.23;100044.72;5020329;28;20625;-65
2023/09/22 09:39:58;;;;;;;9.73;3.42;;;;;;;13.65;51.71;100045.63;5015054;28;20044;-65
2023/09/22 09:42:25;;;;;;;7.50;3.95;;;;;;;13.37;52.11;100043.94;5031970;28;20162;-65
2023/09/22 09:44:59;;;;;;;12.95;5.43;;;;;;;13.49;52.62;100037.88;5019374;28;20040;-66
2023/09/22 09:47:32;;;;;;;7.13;4.28;;;;;;;14.04;51.49;100041.25;5021783;28;20589;-64
2023/09/22 09:49:58;;;;;;;7.40;4.70;;;;;;;13.60;52.39;100041.63;5021313;28;20250;-66
2023/09/22 09:52:35;;;;;;;8.98;5.28;;;;;;;13.87;52.08;100045.03;5006947;28;20040;-65
2023/09/22 09:55:09;;;;;;;12.80;4.05;;;;;;;13.58;52.14;100046.13;5014272;28;20462;-67
2023/09/22 09:57:38;;;;;;;8.55;3.53;;;;;;;13.86;51.88;100048.59;5020566;28;20041;-67
2023/09/22 10:00:13;;;;;;;8.10;4.32;;;;;;;14.26;51.39;100034.56;5017086;28;20045;-67
2023/09/22 10:02:44;;;;;;;6.88;4.15;;;;;;;14.05;50.67;100034.22;5017674;28;20067;-67
2023/09/22 10:05:24;;;;;;;8.05;4.03;;;;;;;13.92;51.71;100031.59;5019216;28;20131;-67
2023/09/22 10:07:51;;;;;;;6.97;4.25;;;;;;;13.69;51.71;100031.34;5023540;28;20037;-67
2023/09/22 10:10:20;;;;;;;7.60;4.03;;;;;;;13.61;52.22;100031.03;5019750;28;20068;-67
2023/09/22 10:12:47;;;;;;;5.45;3.70;;;;;;;14.51;51.16;100034.56;5022981;28;20119;-68
2023/09/22 10:15:13;;;;;;;6.60;3.72;;;;;;;15.35;48.79;100030.34;5020063;28;20047;-67
2023/09/22 10:17:38;;;;;;;5.53;3.80;;;;;;;15.25;47.70;100028.47;5020387;28;20088;-67
2023/09/22 10:20:11;;;;;;;7.80;4.13;;;;;;;15.36;47.80;100031.16;5020980;28;20044;-68
2023/09/22 10:22:41;;;;;;;7.43;3.22;;;;;;;15.65;46.85;100036.06;5021452;28;20036;-68
2023/09/22 10:25:13;;;;;;;4.80;3.33;;;;;;;15.43;48.61;100035.03;5024693;28;20043;-68
2023/09/22 10:27:59;;;;;;;4.90;2.75;;;;;;;16.34;47.24;100038.75;5023893;28;20049;-67
2023/09/22 10:30:45;;;;;;;7.63;3.42;;;;;;;15.82;45.57;100035.66;5023128;28;20087;-69
2023/09/22 10:33:22;;;;;;;3.30;2.30;;;;;;;15.83;46.44;100029.41;5007303;28;21091;-69
2023/09/22 10:35:51;;;;;;;2.75;2.38;;;;;;;16.47;45.17;100036.00;5024785;28;20041;-69
2023/09/22 10:38:20;;;;;;;4.22;2.28;;;;;;;15.88;45.18;100032.53;5019712;28;20072;-67
2023/09/22 10:40:58;;;;;;;4.50;2.15;;;;;;;16.07;44.76;100036.44;5022207;28;20036;-69
2023/09/22 10:43:23;;;;;;;4.88;2.10;;;;;;;16.29;43.84;100033.00;5022899;28;20080;-66
2023/09/22 10:45:52;;;;;;;6.70;1.88;;;;;;;15.80;44.97;100051.56;5021510;28;20037;-69
2023/09/22 10:48:18;;;;;;;6.40;2.33;;;;;;;15.80;45.90;100041.03;5020737;28;20103;-69
2023/09/22 10:50:51;;;;;;;6.32;1.80;;;;;;;15.65;46.27;100041.34;5019904;28;20033;-67
2023/09/22 10:53:20;;;;;;;5.82;1.85;;;;;;;16.09;46.09;100040.63;5032063;28;20522;-67
2023/09/22 10:55:46;;;;;;;3.33;1.80;;;;;;;17.20;44.36;100035.44;5026355;28;20474;-69
2023/09/22 10:58:20;;;;;;;6.78;3.80;;;;;;;18.05;42.18;100020.50;5018634;28;20076;-67
2023/09/22 11:01:07;;;;;;;4.20;1.73;;;;;;;17.33;41.45;100029.13;5023819;28;20541;-67
2023/09/22 11:03:33;;;;;;;3.92;1.23;;;;;;;17.83;41.38;100030.25;5020495;28;20037;-66
2023/09/22 11:06:10;;;;;;;4.32;1.42;;;;;;;18.31;40.09;100017.47;5036932;28;20064;-66
2023/09/22 11:08:52;;;;;;;4.22;1.00;;;;;;;19.18;41.30;100017.72;5006586;28;20053;-67
2023/09/22 11:11:19;;;;;;;3.03;1.08;;;;;;;18.98;37.85;100021.31;5016529;28;20097;-67
2023/09/22 11:13:55;;;;;;;2.08;1.08;;;;;;;18.00;39.14;100028.81;5021116;28;20298;-68
2023/09/22 11:16:22;;;;;;;2.17;0.57;;;;;;;17.16;39.91;100026.09;5020720;28;20488;-67
2023/09/22 11:18:51;;;;;;;3.67;1.05;;;;;;;17.00;41.08;100036.19;5024618;28;20033;-67
2023/09/22 11:21:16;;;;;;;3.42;1.52;;;;;;;17.06;41.88;100038.34;5016038;28;20762;-67
2023/09/22 11:23:45;;;;;;;3.72;1.17;;;;;;;17.35;42.14;100028.03;5022731;28;20045;-67
2023/09/22 11:26:13;;;;;;;5.95;0.90;;;;;;;17.36;41.19;100034.19;5016802;28;20094;-67
2023/09/22 11:28:43;;;;;;;3.28;0.50;;;;;;;17.97;40.18;100037.00;5013856;28;20041;-67
2023/09/22 11:31:14;;;;;;;4.32;0.73;;;;;;;17.28;41.15;100044.53;5003938;28;20063;-67